createdAt,value
2023-05-07T00:12:40.393Z,3.38
2023-05-07T00:27:42.509Z,3.92
2023-05-07T00:42:48.338Z,3.00
2023-05-07T00:57:51.527Z,2.90
2023-05-07T01:12:55.151Z,3.30
2023-05-07T01:27:57.207Z,3.80
2023-05-07T01:42:59.852Z,3.38
2023-05-07T01:58:01.877Z,3.67
2023-05-07T02:13:03.920Z,3.15
2023-05-07T02:28:06.032Z,2.78
2023-05-07T02:43:08.058Z,2.58
2023-05-07T02:58:09.886Z,2.70
2023-05-07T03:13:11.872Z,2.70
2023-05-07T03:28:13.808Z,2.85
2023-05-07T03:43:15.894Z,2.70
2023-05-07T03:58:17.985Z,2.63
2023-05-07T04:13:20.066Z,2.30
2023-05-07T04:28:22.122Z,2.05
2023-05-07T04:43:24.345Z,1.75
2023-05-07T04:58:26.482Z,1.40
2023-05-07T05:13:28.486Z,1.58
2023-05-07T05:28:31.040Z,1.52
2023-05-07T05:43:33.147Z,1.55
2023-05-07T05:58:35.268Z,1.40
2023-05-07T06:13:37.310Z,1.45
2023-05-07T06:28:39.322Z,1.50
2023-05-07T06:43:41.321Z,1.15
2023-05-07T06:58:43.367Z,1.45
2023-05-07T07:13:45.370Z,1.48
2023-05-07T07:28:47.722Z,1.40
2023-05-07T07:43:50.026Z,1.75
2023-05-07T07:58:52.284Z,1.40
2023-05-07T08:13:55.464Z,1.60
2023-05-07T08:28:57.563Z,1.60
2023-05-07T08:44:03.804Z,1.70
2023-05-07T08:59:06.512Z,1.52
2023-05-07T09:14:09.618Z,1.50
2023-05-07T09:29:12.211Z,1.92
2023-05-07T09:44:15.842Z,1.50
2023-05-07T09:59:18.423Z,1.73
2023-05-07T10:14:22.686Z,1.50
2023-05-07T10:29:42.857Z,1.40
2023-05-07T10:44:45.001Z,1.50
2023-05-07T10:59:47.140Z,1.88
2023-05-07T11:14:49.269Z,1.60
2023-05-07T11:29:51.991Z,1.85
2023-05-07T11:44:54.023Z,1.70
2023-05-07T12:00:00.282Z,1.60
2023-05-07T12:15:02.236Z,1.67
2023-05-07T12:30:05.013Z,1.70
2023-05-07T12:45:14.877Z,1.58
2023-05-07T13:00:17.464Z,1.67
2023-05-07T13:15:19.754Z,1.67
2023-05-07T13:30:21.730Z,1.73
2023-05-07T13:45:26.988Z,1.65
2023-05-07T14:00:30.331Z,1.50
2023-05-07T14:15:34.071Z,1.80
2023-05-07T14:30:36.401Z,1.77
2023-05-07T14:45:38.470Z,1.63
2023-05-07T15:00:40.655Z,1.60
2023-05-07T15:15:44.981Z,1.50
2023-05-07T15:30:47.072Z,1.88
2023-05-07T15:45:49.115Z,1.50
2023-05-07T16:00:51.231Z,1.83
2023-05-07T16:15:58.648Z,1.60
2023-05-07T16:31:01.091Z,1.88
2023-05-07T16:46:03.153Z,1.63
2023-05-07T17:01:05.281Z,2.00
2023-05-07T17:16:07.289Z,2.17
2023-05-07T17:31:09.606Z,2.30
2023-05-07T17:46:11.825Z,2.47
2023-05-07T18:01:14.352Z,1.98
2023-05-07T18:16:17.811Z,2.85
2023-05-07T18:31:20.907Z,5.63
2023-05-07T18:46:23.167Z,3.63
2023-05-07T19:01:25.412Z,8.20
2023-05-07T19:16:29.181Z,5.40
2023-05-07T19:31:33.649Z,4.82
2023-05-07T19:46:36.402Z,4.20
2023-05-07T20:01:39.497Z,4.30
2023-05-07T20:16:41.603Z,3.50
2023-05-07T20:31:44.064Z,4.03
2023-05-07T20:46:46.167Z,4.63
2023-05-07T21:01:48.200Z,5.45
2023-05-07T21:16:50.564Z,6.13
2023-05-07T21:31:52.994Z,5.68
2023-05-07T21:46:55.036Z,6.30
2023-05-07T22:01:57.114Z,7.07
2023-05-07T22:16:59.187Z,7.95
2023-05-07T22:32:01.138Z,8.35
2023-05-07T22:47:03.303Z,9.43
2023-05-07T23:02:05.457Z,10.93
2023-05-07T23:17:07.660Z,9.73
2023-05-07T23:32:09.718Z,9.48
2023-05-07T23:47:11.619Z,8.95
